Yorkshire, New York
Current Conditions -  °F | °C
As of 7:55 AM on Friday 19 Dec 2014 (Local Time) from KOLE Reporting Station
Haze Haze  
Wind Chill: 12°   Ceiling: 500
Heat Index: 21°   Visibility: 5mi
Dew Point: 21°   Wind: 8mph
Humidity: 100%   Direction: 290°WNW
Pressure: 30.04"   Gusts: NA
Location:  42.52°N, 78.48°W
Report Text: KOLE 191255Z AUTO 29007KT 250V330 5SM BR OVC005 M06/M06 A3004 RMK AO2
Loading
Personal Weather Stations






























Interactive Weather Map New forecast layout! Learn more

10-Day Weather Forecast

Advertisements
Track Severe Weather on mobile